createdAt,value
2023-04-06T00:00:05.480Z,5.70
2023-04-06T00:02:38.021Z,6.50
2023-04-06T00:05:56.018Z,6.45
2023-04-06T00:08:24.547Z,6.68
2023-04-06T00:10:54.296Z,7.65
2023-04-06T00:13:22.730Z,7.75
2023-04-06T00:15:51.165Z,6.97
2023-04-06T00:18:20.457Z,6.85
2023-04-06T00:20:49.026Z,7.30
2023-04-06T00:23:17.534Z,7.72
2023-04-06T00:25:46.163Z,7.25
2023-04-06T00:28:16.034Z,7.95
2023-04-06T00:30:44.449Z,7.63
2023-04-06T00:33:12.979Z,7.50
2023-04-06T00:35:41.529Z,6.38
2023-04-06T00:38:10.067Z,7.15
2023-04-06T00:40:40.394Z,6.95
2023-04-06T00:43:09.949Z,6.45
2023-04-06T00:45:40.944Z,6.22
2023-04-06T00:48:10.232Z,5.85
2023-04-06T00:50:38.739Z,6.22
2023-04-06T00:53:07.102Z,5.70
2023-04-06T00:55:36.891Z,5.78
2023-04-06T00:58:06.496Z,6.43
2023-04-06T01:00:43.789Z,5.97
2023-04-06T01:03:17.644Z,6.40
2023-04-06T01:05:46.488Z,5.65
2023-04-06T01:08:26.880Z,6.10
2023-04-06T01:11:03.726Z,5.65
2023-04-06T01:13:32.523Z,6.03
2023-04-06T01:16:05.665Z,6.13
2023-04-06T01:18:46.486Z,5.88
2023-04-06T01:21:29.210Z,5.95
2023-04-06T01:24:31.336Z,5.80
2023-04-06T01:27:09.167Z,5.85
2023-04-06T01:29:56.228Z,5.25
2023-04-06T01:32:59.894Z,5.45
2023-04-06T01:35:57.763Z,5.57
2023-04-06T01:38:26.578Z,5.43
2023-04-06T01:40:56.641Z,5.25
2023-04-06T01:43:27.506Z,5.53
2023-04-06T01:46:14.066Z,5.43
2023-04-06T01:48:44.734Z,5.78
2023-04-06T01:51:21.578Z,6.00
2023-04-06T01:53:56.076Z,6.82
2023-04-06T01:56:31.698Z,6.22
2023-04-06T01:59:17.590Z,5.95
2023-04-06T02:01:46.355Z,5.28
2023-04-06T02:04:15.660Z,5.80
2023-04-06T02:06:45.901Z,5.43
2023-04-06T02:09:17.076Z,6.57
2023-04-06T02:11:47.278Z,6.18
2023-04-06T02:14:16.052Z,6.15
2023-04-06T02:16:50.762Z,6.68
2023-04-06T02:19:19.508Z,5.38
2023-04-06T02:21:47.948Z,5.82
2023-04-06T02:24:16.499Z,5.95
2023-04-06T02:26:45.001Z,5.50
2023-04-06T02:29:14.856Z,5.82
2023-04-06T02:31:43.404Z,5.85
2023-04-06T02:34:12.980Z,5.80
2023-04-06T02:36:44.707Z,5.78
2023-04-06T02:39:13.717Z,5.82
2023-04-06T02:41:42.732Z,5.78
2023-04-06T02:44:12.267Z,6.15
2023-04-06T02:46:45.897Z,6.13
2023-04-06T02:49:14.312Z,5.57
2023-04-06T02:51:42.904Z,5.93
2023-04-06T02:54:19.274Z,6.18
2023-04-06T02:56:47.775Z,6.15
2023-04-06T02:59:16.500Z,5.65
2023-04-06T03:01:53.640Z,6.30
2023-04-06T03:04:23.694Z,5.82
2023-04-06T03:06:53.111Z,5.68
2023-04-06T03:09:32.687Z,5.72
2023-04-06T03:12:01.408Z,6.07
2023-04-06T03:14:30.979Z,5.60
2023-04-06T03:17:01.374Z,5.95
2023-04-06T03:19:30.113Z,5.65
2023-04-06T03:22:01.612Z,5.97
2023-04-06T03:24:30.562Z,6.88
2023-04-06T03:26:59.025Z,6.53
2023-04-06T03:29:28.033Z,5.90
2023-04-06T03:31:56.603Z,5.88
2023-04-06T03:34:36.401Z,5.30
2023-04-06T03:37:10.472Z,6.13
2023-04-06T03:39:44.628Z,5.45
2023-04-06T03:42:18.815Z,5.15
2023-04-06T03:44:53.436Z,6.18
2023-04-06T03:47:21.941Z,5.50
2023-04-06T03:49:52.019Z,6.13
2023-04-06T03:52:20.613Z,6.03
2023-04-06T03:54:49.119Z,5.97
2023-04-06T04:00:54.558Z,5.53
2023-04-06T04:03:24.526Z,5.90
2023-04-06T04:05:54.406Z,5.93
2023-04-06T04:08:22.870Z,5.97
2023-04-06T04:10:51.250Z,6.03
2023-04-06T04:13:21.296Z,6.05
2023-04-06T04:15:52.319Z,5.80
2023-04-06T04:18:20.748Z,6.90
2023-04-06T04:20:49.117Z,6.47
2023-04-06T04:23:20.503Z,6.10
2023-04-06T04:25:48.933Z,6.45
2023-04-06T04:28:17.332Z,7.03
2023-04-06T04:30:46.446Z,6.18
2023-04-06T04:33:15.804Z,5.97
2023-04-06T04:35:45.069Z,6.68
2023-04-06T04:38:18.597Z,6.15
2023-04-06T04:40:52.951Z,6.40
2023-04-06T04:43:21.401Z,6.32
2023-04-06T04:45:50.217Z,6.20
2023-04-06T04:48:39.831Z,6.30
2023-04-06T04:51:09.233Z,6.35
2023-04-06T04:53:55.743Z,6.22
2023-04-06T04:56:29.753Z,5.38
2023-04-06T04:59:06.260Z,6.15
2023-04-06T05:01:47.723Z,6.90
2023-04-06T05:04:23.281Z,6.07
2023-04-06T05:06:51.804Z,6.90
2023-04-06T05:09:22.872Z,6.20
2023-04-06T05:11:51.345Z,6.43
2023-04-06T05:14:19.887Z,6.70
2023-04-06T05:16:48.346Z,7.03
2023-04-06T05:19:16.951Z,6.88
2023-04-06T05:21:47.320Z,6.68
2023-04-06T05:24:16.230Z,7.18
2023-04-06T05:26:47.929Z,6.38
2023-04-06T05:29:22.608Z,7.03
2023-04-06T05:31:51.340Z,6.95
2023-04-06T05:34:19.851Z,7.00
2023-04-06T05:36:49.580Z,7.32
2023-04-06T05:39:22.183Z,6.72
2023-04-06T05:41:54.543Z,6.80
2023-04-06T05:44:33.680Z,6.95
2023-04-06T05:47:08.579Z,7.00
2023-04-06T05:49:38.581Z,6.72
2023-04-06T05:52:12.055Z,6.75
2023-04-06T05:54:41.740Z,6.38
2023-04-06T05:57:11.483Z,6.68
2023-04-06T05:59:41.879Z,6.10
2023-04-06T06:02:11.957Z,7.50
2023-04-06T06:04:44.329Z,6.93
2023-04-06T06:07:12.885Z,7.65
2023-04-06T06:09:49.471Z,7.63
2023-04-06T06:12:30.205Z,7.07
2023-04-06T06:14:59.018Z,6.97
2023-04-06T06:17:29.225Z,7.18
2023-04-06T06:19:58.260Z,6.80
2023-04-06T06:22:29.140Z,7.15
2023-04-06T06:24:57.786Z,7.00
2023-04-06T06:27:26.986Z,6.93
2023-04-06T06:29:56.827Z,6.70
2023-04-06T06:32:26.396Z,7.20
2023-04-06T06:34:56.000Z,7.68
2023-04-06T06:37:24.445Z,7.20
2023-04-06T06:39:52.954Z,7.30
2023-04-06T06:42:23.071Z,7.03
2023-04-06T06:45:12.585Z,7.13
2023-04-06T06:47:42.143Z,7.50
2023-04-06T06:50:12.876Z,6.63
2023-04-06T06:52:42.228Z,7.43
2023-04-06T06:55:11.597Z,7.20
2023-04-06T06:57:40.324Z,7.90
2023-04-06T07:00:12.836Z,7.55
2023-04-06T07:02:43.679Z,7.57
2023-04-06T07:05:26.070Z,7.07
2023-04-06T07:07:57.242Z,7.40
2023-04-06T07:10:31.850Z,7.63
2023-04-06T07:13:08.174Z,7.05
2023-04-06T07:15:38.852Z,7.43
2023-04-06T07:18:09.900Z,7.07
2023-04-06T07:20:42.230Z,7.38
2023-04-06T07:23:20.501Z,7.78
2023-04-06T07:25:51.923Z,8.02
2023-04-06T07:28:21.718Z,8.77
2023-04-06T07:30:50.553Z,7.65
2023-04-06T07:33:20.736Z,7.78
2023-04-06T07:35:49.570Z,7.97
2023-04-06T07:38:18.200Z,7.90
2023-04-06T07:40:48.858Z,9.02
2023-04-06T07:43:17.605Z,8.18
2023-04-06T07:45:46.107Z,8.27
2023-04-06T07:48:16.194Z,9.52
2023-04-06T07:50:46.317Z,8.15
2023-04-06T07:53:14.799Z,7.90
2023-04-06T07:55:44.681Z,8.85
2023-04-06T07:58:13.085Z,8.43
2023-04-06T08:00:41.458Z,9.73
2023-04-06T08:03:09.965Z,9.05
2023-04-06T08:05:38.524Z,9.25
2023-04-06T08:08:08.359Z,9.18
2023-04-06T08:10:36.951Z,9.40
2023-04-06T08:13:05.323Z,9.43
2023-04-06T08:15:33.785Z,9.23
2023-04-06T08:18:02.276Z,10.45
2023-04-06T08:20:30.791Z,9.70
2023-04-06T08:22:59.177Z,15.32
2023-04-06T08:25:29.033Z,10.40
2023-04-06T08:27:57.716Z,9.25
2023-04-06T08:30:26.058Z,10.07
2023-04-06T08:32:54.463Z,10.43
2023-04-06T08:35:22.924Z,10.05
2023-04-06T08:37:51.282Z,9.57
2023-04-06T08:40:19.700Z,9.55
2023-04-06T08:42:52.660Z,9.27
2023-04-06T08:45:22.269Z,9.77
2023-04-06T08:47:53.210Z,9.88
2023-04-06T08:50:22.009Z,9.27
2023-04-06T08:52:51.004Z,9.05
2023-04-06T08:55:19.485Z,9.80
2023-04-06T08:57:48.272Z,9.80
2023-04-06T09:00:19.372Z,10.13
2023-04-06T09:02:48.616Z,9.90
2023-04-06T09:05:17.848Z,9.93
2023-04-06T09:07:47.433Z,10.65
2023-04-06T09:10:16.548Z,9.82
2023-04-06T09:12:45.090Z,9.60
2023-04-06T09:15:24.397Z,9.07
2023-04-06T09:17:55.409Z,8.88
2023-04-06T09:20:26.775Z,9.23
2023-04-06T09:22:55.519Z,9.52
2023-04-06T09:25:24.786Z,8.27
2023-04-06T09:28:01.247Z,8.75
2023-04-06T09:30:31.394Z,9.07
2023-04-06T09:33:05.043Z,9.18
2023-04-06T09:35:37.853Z,8.48
2023-04-06T09:38:19.274Z,8.18
2023-04-06T09:41:01.324Z,8.80
2023-04-06T09:43:30.534Z,7.88
2023-04-06T09:46:01.728Z,7.95
2023-04-06T09:48:31.170Z,8.63
2023-04-06T09:51:06.334Z,8.48
2023-04-06T09:53:37.368Z,7.88
2023-04-06T09:56:06.099Z,8.75
2023-04-06T09:58:36.773Z,8.55
2023-04-06T10:01:10.291Z,8.20
2023-04-06T10:03:51.210Z,8.32
2023-04-06T10:06:24.120Z,8.43
2023-04-06T10:08:55.372Z,8.57
2023-04-06T10:11:24.334Z,8.57
2023-04-06T10:13:52.808Z,8.75
2023-04-06T10:16:22.587Z,8.25
2023-04-06T10:18:54.059Z,8.00
2023-04-06T10:21:24.368Z,8.40
2023-04-06T10:23:54.926Z,8.18
2023-04-06T10:26:23.971Z,8.93
2023-04-06T10:28:53.071Z,7.85
2023-04-06T10:31:28.445Z,8.18
2023-04-06T10:33:57.755Z,9.30
2023-04-06T10:36:27.709Z,9.60
2023-04-06T10:38:57.159Z,7.95
2023-04-06T10:41:26.589Z,8.02
2023-04-06T10:43:58.689Z,8.20
2023-04-06T10:46:29.280Z,7.95
2023-04-06T10:48:57.926Z,7.78
2023-04-06T10:51:31.843Z,7.75
2023-04-06T10:54:01.225Z,7.53
2023-04-06T10:56:32.854Z,7.55
2023-04-06T10:59:01.370Z,7.07
2023-04-06T11:01:31.450Z,6.72
2023-04-06T11:04:03.346Z,7.50
2023-04-06T11:06:33.339Z,7.18
2023-04-06T11:09:01.860Z,7.15
2023-04-06T11:11:30.310Z,7.55
2023-04-06T11:13:59.700Z,7.15
2023-04-06T11:16:29.218Z,7.22
2023-04-06T11:19:00.182Z,7.25
2023-04-06T11:21:35.425Z,7.53
2023-04-06T11:24:10.742Z,6.78
2023-04-06T11:26:44.337Z,7.05
2023-04-06T11:29:13.025Z,7.07
2023-04-06T11:31:45.448Z,6.88
2023-04-06T11:34:16.249Z,8.57
2023-04-06T11:36:45.602Z,7.15
2023-04-06T11:39:14.441Z,8.27
2023-04-06T11:41:42.818Z,7.13
2023-04-06T11:44:11.648Z,7.75
2023-04-06T11:46:40.115Z,8.07
2023-04-06T11:49:08.543Z,7.60
2023-04-06T11:51:39.618Z,7.22
2023-04-06T11:54:08.076Z,7.88
2023-04-06T11:56:36.472Z,7.60
2023-04-06T11:59:05.619Z,6.70
2023-04-06T12:01:38.897Z,7.28
2023-04-06T12:04:08.247Z,7.82
2023-04-06T12:06:36.651Z,7.80
2023-04-06T12:09:06.412Z,8.43
2023-04-06T12:11:34.911Z,7.85
2023-04-06T12:14:05.626Z,7.40
2023-04-06T12:16:34.265Z,7.22
2023-04-06T12:19:02.698Z,7.65
2023-04-06T12:21:31.953Z,7.10
2023-04-06T12:24:00.544Z,7.32
2023-04-06T12:26:30.548Z,7.55
2023-04-06T12:29:03.802Z,7.55
2023-04-06T12:31:32.290Z,7.60
2023-04-06T12:34:00.685Z,7.32
2023-04-06T12:36:29.174Z,6.72
2023-04-06T12:38:59.199Z,6.50
2023-04-06T12:41:30.620Z,8.18
2023-04-06T12:44:00.296Z,7.28
2023-04-06T12:46:30.586Z,7.78
2023-04-06T12:48:59.980Z,6.45
2023-04-06T12:51:30.372Z,6.70
2023-04-06T12:53:58.826Z,6.53
2023-04-06T12:56:27.662Z,6.28
2023-04-06T12:58:57.649Z,6.78
2023-04-06T13:01:31.968Z,7.18
2023-04-06T13:04:10.183Z,6.65
2023-04-06T13:06:48.064Z,6.05
2023-04-06T13:09:17.139Z,6.57
2023-04-06T13:11:46.868Z,7.45
2023-04-06T13:14:17.028Z,7.03
2023-04-06T13:16:46.073Z,6.93
2023-04-06T13:19:14.825Z,7.05
2023-04-06T13:21:43.219Z,6.60
2023-04-06T13:24:11.602Z,6.93
2023-04-06T13:26:40.016Z,6.60
2023-04-06T13:29:08.503Z,7.00
2023-04-06T13:31:40.687Z,5.78
2023-04-06T13:34:09.605Z,6.78
2023-04-06T13:36:38.124Z,7.30
2023-04-06T13:39:06.897Z,7.03
2023-04-06T13:41:35.580Z,8.02
2023-04-06T13:44:03.959Z,6.57
2023-04-06T13:46:44.704Z,7.20
2023-04-06T13:49:13.139Z,5.85
2023-04-06T13:51:42.225Z,6.80
2023-04-06T13:54:10.652Z,6.40
2023-04-06T13:56:38.925Z,6.32
2023-04-06T13:59:07.405Z,6.75
2023-04-06T14:01:37.202Z,6.85
2023-04-06T14:04:12.542Z,7.07
2023-04-06T14:06:42.364Z,7.00
2023-04-06T14:09:11.787Z,6.22
2023-04-06T14:11:40.049Z,6.63
2023-04-06T14:14:08.351Z,6.40
2023-04-06T14:16:36.682Z,6.57
2023-04-06T14:19:05.061Z,6.07
2023-04-06T14:21:34.774Z,7.13
2023-04-06T14:24:03.279Z,6.32
2023-04-06T14:26:31.658Z,7.00
2023-04-06T14:29:01.283Z,5.47
2023-04-06T14:31:29.800Z,5.72
2023-04-06T14:33:58.273Z,5.65
2023-04-06T14:36:28.175Z,5.55
2023-04-06T14:38:59.491Z,6.35
2023-04-06T14:41:27.913Z,6.32
2023-04-06T14:43:56.289Z,5.97
2023-04-06T14:46:24.755Z,6.03
2023-04-06T14:48:53.254Z,6.60
2023-04-06T14:51:21.639Z,5.95
2023-04-06T14:53:52.023Z,6.38
2023-04-06T14:56:25.882Z,6.57
2023-04-06T14:58:54.760Z,5.55
2023-04-06T15:01:23.418Z,6.65
2023-04-06T15:03:51.971Z,6.65
2023-04-06T15:06:21.716Z,8.25
2023-04-06T15:08:50.722Z,6.15
2023-04-06T15:11:19.088Z,7.03
2023-04-06T15:13:48.980Z,6.75
2023-04-06T15:16:17.440Z,5.75
2023-04-06T15:18:45.802Z,6.15
2023-04-06T15:21:14.122Z,6.63
2023-04-06T15:23:42.441Z,6.75
2023-04-06T15:26:10.722Z,5.78
2023-04-06T15:28:39.030Z,6.55
2023-04-06T15:31:28.201Z,6.38
2023-04-06T15:34:04.853Z,7.15
2023-04-06T15:36:33.864Z,6.18
2023-04-06T15:39:03.249Z,5.68
2023-04-06T15:41:31.664Z,6.95
2023-04-06T15:44:00.005Z,6.30
2023-04-06T15:46:29.702Z,6.50
2023-04-06T15:48:58.099Z,6.18
2023-04-06T15:51:26.527Z,5.88
2023-04-06T15:53:54.891Z,5.22
2023-04-06T15:56:23.305Z,5.13
2023-04-06T15:59:17.364Z,5.55
2023-04-06T16:01:50.639Z,6.05
2023-04-06T16:04:25.544Z,6.13
2023-04-06T16:06:54.712Z,5.68
2023-04-06T16:09:27.771Z,5.97
2023-04-06T16:11:56.804Z,5.75
2023-04-06T16:14:25.422Z,5.00
2023-04-06T16:16:55.361Z,5.25
2023-04-06T16:19:23.820Z,4.40
2023-04-06T16:21:52.125Z,4.45
2023-04-06T16:24:21.034Z,4.85
2023-04-06T16:26:49.443Z,4.80
2023-04-06T16:29:19.086Z,4.32
2023-04-06T16:31:47.947Z,3.92
2023-04-06T16:34:17.790Z,3.83
2023-04-06T16:36:46.448Z,3.88
2023-04-06T16:39:15.957Z,4.30
2023-04-06T16:41:51.857Z,4.40
2023-04-06T16:44:20.519Z,4.20
2023-04-06T16:46:49.062Z,4.38
2023-04-06T16:49:20.245Z,4.40
2023-04-06T16:51:49.792Z,4.25
2023-04-06T16:54:18.461Z,5.32
2023-04-06T16:56:46.964Z,5.07
2023-04-06T16:59:18.671Z,4.47
2023-04-06T17:01:47.605Z,4.00
2023-04-06T17:04:16.672Z,3.80
2023-04-06T17:06:46.766Z,3.92
2023-04-06T17:09:21.490Z,3.65
2023-04-06T17:11:53.868Z,7.07
2023-04-06T17:14:22.388Z,5.10
2023-04-06T17:17:25.841Z,3.92
2023-04-06T17:19:54.345Z,3.90
2023-04-06T17:22:24.080Z,3.80
2023-04-06T17:24:52.702Z,3.42
2023-04-06T17:27:23.597Z,3.80
2023-04-06T17:29:54.880Z,3.85
2023-04-06T17:32:25.561Z,3.92
2023-04-06T17:34:54.064Z,3.45
2023-04-06T17:37:23.820Z,3.50
2023-04-06T17:39:52.300Z,3.67
2023-04-06T17:44:53.233Z,3.00
2023-04-06T17:47:22.009Z,2.97
2023-04-06T17:49:50.609Z,2.97
2023-04-06T17:52:21.668Z,3.42
2023-04-06T17:54:57.480Z,2.88
2023-04-06T17:57:26.276Z,3.28
2023-04-06T17:59:54.993Z,2.50
2023-04-06T18:02:26.716Z,2.90
2023-04-06T18:04:55.791Z,2.58
2023-04-06T18:07:24.318Z,2.65
2023-04-06T18:09:55.651Z,2.85
2023-04-06T18:12:24.107Z,2.65
2023-04-06T18:14:53.032Z,2.13
2023-04-06T18:17:21.677Z,2.72
2023-04-06T18:19:50.513Z,3.05
2023-04-06T18:22:19.633Z,3.38
2023-04-06T18:24:48.046Z,2.90
2023-04-06T18:27:19.622Z,4.88
2023-04-06T18:29:47.988Z,10.85
2023-04-06T18:32:17.069Z,4.57
2023-04-06T18:34:47.031Z,3.38
2023-04-06T18:37:16.065Z,3.30
2023-04-06T18:39:44.806Z,3.22
2023-04-06T18:42:13.184Z,3.28
2023-04-06T18:44:42.972Z,3.40
2023-04-06T18:47:11.438Z,3.42
2023-04-06T18:49:39.884Z,3.63
2023-04-06T18:52:08.422Z,3.80
2023-04-06T18:54:36.896Z,3.55
2023-04-06T18:57:05.389Z,3.97
2023-04-06T18:59:33.947Z,3.60
2023-04-06T19:02:03.704Z,3.70
2023-04-06T19:04:32.249Z,3.65
2023-04-06T19:07:00.973Z,3.97
2023-04-06T19:09:29.440Z,4.20
2023-04-06T19:11:58.226Z,3.53
2023-04-06T19:14:26.624Z,3.90
2023-04-06T19:16:55.183Z,3.60
2023-04-06T19:19:24.987Z,2.92
2023-04-06T19:21:53.671Z,3.88
2023-04-06T19:24:22.162Z,3.80
2023-04-06T19:26:50.501Z,3.65
2023-04-06T19:29:18.837Z,3.88
2023-04-06T19:31:47.345Z,3.50
2023-04-06T19:34:17.710Z,3.70
2023-04-06T19:36:47.588Z,3.70
2023-04-06T19:39:17.883Z,4.07
2023-04-06T19:41:46.246Z,4.60
2023-04-06T19:44:14.575Z,4.50
2023-04-06T19:46:43.234Z,5.78
2023-04-06T19:49:11.691Z,5.70
2023-04-06T19:51:40.352Z,4.50
2023-04-06T19:54:10.162Z,4.30
2023-04-06T19:56:39.636Z,4.85
2023-04-06T19:59:10.824Z,4.47
2023-04-06T20:01:39.430Z,4.25
2023-04-06T20:04:08.302Z,4.05
2023-04-06T20:06:36.770Z,4.50
2023-04-06T20:09:05.349Z,4.07
2023-04-06T20:11:35.982Z,5.15
2023-04-06T20:14:04.445Z,5.10
2023-04-06T20:16:32.734Z,17.35
2023-04-06T20:19:01.331Z,7.68
2023-04-06T20:21:29.826Z,7.90
2023-04-06T20:23:58.190Z,11.63
2023-04-06T20:26:27.060Z,5.75
2023-04-06T20:28:56.911Z,5.15
2023-04-06T20:31:27.511Z,4.82
2023-04-06T20:33:58.021Z,4.57
2023-04-06T20:36:29.006Z,5.30
2023-04-06T20:38:59.798Z,5.82
2023-04-06T20:41:28.327Z,5.28
2023-04-06T20:43:58.084Z,4.78
2023-04-06T20:46:26.446Z,5.45
2023-04-06T20:48:54.876Z,5.05
2023-04-06T20:51:24.372Z,5.15
2023-04-06T20:53:53.702Z,5.40
2023-04-06T20:56:22.676Z,6.18
2023-04-06T20:58:51.369Z,5.90
2023-04-06T21:01:21.124Z,5.55
2023-04-06T21:03:49.735Z,5.97
2023-04-06T21:06:18.264Z,5.97
2023-04-06T21:08:46.700Z,5.57
2023-04-06T21:11:15.099Z,6.50
2023-04-06T21:13:43.574Z,5.45
2023-04-06T21:16:12.420Z,6.95
2023-04-06T21:18:42.132Z,7.00
2023-04-06T21:21:10.646Z,6.93
2023-04-06T21:23:39.088Z,6.95
2023-04-06T21:26:07.717Z,6.78
2023-04-06T21:28:36.209Z,7.53
2023-04-06T21:31:08.418Z,7.32
2023-04-06T21:33:36.813Z,7.35
2023-04-06T21:36:09.880Z,7.35
2023-04-06T21:38:38.878Z,7.55
2023-04-06T21:41:07.441Z,7.65
2023-04-06T21:43:35.847Z,7.07
2023-04-06T21:46:04.805Z,8.32
2023-04-06T21:48:33.183Z,9.10
2023-04-06T21:51:01.475Z,7.80
2023-04-06T21:53:31.202Z,8.32
2023-04-06T21:56:00.775Z,7.88
2023-04-06T21:58:29.132Z,8.63
2023-04-06T22:00:58.856Z,8.65
2023-04-06T22:03:28.823Z,9.27
2023-04-06T22:05:58.179Z,9.40
2023-04-06T22:08:33.803Z,9.38
2023-04-06T22:11:08.582Z,8.82
2023-04-06T22:13:37.069Z,9.27
2023-04-06T22:16:05.649Z,9.48
2023-04-06T22:18:37.301Z,9.82
2023-04-06T22:21:07.368Z,9.25
2023-04-06T22:23:41.959Z,10.32
2023-04-06T22:26:12.066Z,10.45
2023-04-06T22:28:40.410Z,9.85
2023-04-06T22:31:08.762Z,10.05
2023-04-06T22:33:37.090Z,10.38
2023-04-06T22:36:05.798Z,10.40
2023-04-06T22:38:37.095Z,10.15
2023-04-06T22:41:07.176Z,10.02
2023-04-06T22:43:38.139Z,10.68
2023-04-06T22:46:06.537Z,10.15
2023-04-06T22:48:34.935Z,10.15
2023-04-06T22:51:03.384Z,10.27
2023-04-06T22:53:32.105Z,10.18
2023-04-06T22:56:00.590Z,10.75
2023-04-06T22:58:28.972Z,9.98
2023-04-06T23:00:58.960Z,10.15
2023-04-06T23:03:27.411Z,9.30
2023-04-06T23:05:55.878Z,10.18
2023-04-06T23:08:24.227Z,9.75
2023-04-06T23:10:52.561Z,10.65
2023-04-06T23:13:20.845Z,10.13
2023-04-06T23:15:49.101Z,10.90
2023-04-06T23:18:18.709Z,9.23
2023-04-06T23:20:46.950Z,10.18
2023-04-06T23:23:15.443Z,10.82
2023-04-06T23:25:44.100Z,10.18
2023-04-06T23:28:12.358Z,9.93
2023-04-06T23:30:40.588Z,9.95
2023-04-06T23:33:09.030Z,10.80
2023-04-06T23:35:38.723Z,10.45
2023-04-06T23:38:07.012Z,11.07
2023-04-06T23:40:35.291Z,9.77
2023-04-06T23:43:03.960Z,10.05
2023-04-06T23:45:32.951Z,10.27
2023-04-06T23:48:01.337Z,10.13
2023-04-06T23:50:29.626Z,10.13
2023-04-06T23:52:59.781Z,11.15
2023-04-06T23:55:30.528Z,10.38
2023-04-06T23:57:58.808Z,10.57
